Time,TemperatureF,DewpointF,PressureIn,WindDirection,WindDirectionDegrees,WindSpeedMPH,WindSpeedGustMPH,Humidity,HourlyPrecipIn,Conditions,Clouds,dailyrainin,SoftwareType,DateUTC
2013-04-16 00:04:00,51.3,46.3,29.52,ESE,122,11.5,11.5,83,0.00,RA,FEW,0.00,WeatherDisplay:10.37,2013-04-15 23:04:00,
2013-04-16 00:09:00,51.3,46.3,29.52,ESE,122,11.5,11.5,83,0.00,RA,FEW,0.00,WeatherDisplay:10.37,2013-04-15 23:09:00,
2013-04-16 00:14:00,51.1,46.1,29.52,SE,145,11.5,11.5,83,0.00,BKN,FEW,0.00,WeatherDisplay:10.37,2013-04-15 23:14:00,
2013-04-16 00:19:00,51.1,46.1,29.52,SE,145,13.8,13.8,83,0.00,BKN,FEW,0.00,WeatherDisplay:10.37,2013-04-15 23:19:00,
2013-04-16 00:24:00,51.1,46.1,29.52,SE,145,6.9,7.2,83,0.00,BKN,FEW,0.00,WeatherDisplay:10.37,2013-04-15 23:24:00,
2013-04-16 00:29:00,50.9,45.9,29.52,ESE,122,11.5,11.5,83,0.00,BKN,FEW,0.00,WeatherDisplay:10.37,2013-04-15 23:29:00,
2013-04-16 00:34:00,50.9,45.6,29.52,SE,145,9.2,9.2,82,0.00,BKN,FEW,0.00,WeatherDisplay:10.37,2013-04-15 23:34:00,
2013-04-16 00:39:00,50.7,45.4,29.52,SE,145,9.2,9.2,82,0.00,BKN,FEW,0.00,WeatherDisplay:10.37,2013-04-15 23:39:00,
2013-04-16 00:44:00,50.9,45.6,29.52,SE,145,10.4,10.4,82,0.00,BKN,FEW,0.00,WeatherDisplay:10.37,2013-04-15 23:44:00,
2013-04-16 00:49:00,51.3,45.6,29.52,WSW,258,10.4,10.4,81,0.00,BKN,FEW,0.00,WeatherDisplay:10.37,2013-04-15 23:49:00,
2013-04-16 00:54:00,51.4,45.5,29.52,SE,145,18.4,18.4,80,0.00,BKN,FEW,0.00,WeatherDisplay:10.37,2013-04-15 23:54:00,
2013-04-16 00:59:00,51.4,45.5,29.52,SE,145,11.5,11.5,80,0.00,BKN,FEW,0.00,WeatherDisplay:10.37,2013-04-15 23:59:00,
2013-04-16 01:04:00,51.4,45.1,29.50,SE,145,16.1,16.1,79,0.00,BKN,FEW,0.00,WeatherDisplay:10.37,2013-04-16 00:04:00,
2013-04-16 01:09:00,51.4,45.1,29.50,SE,145,12.7,12.7,79,0.00,BKN,FEW,0.00,WeatherDisplay:10.37,2013-04-16 00:09:00,
2013-04-16 01:14:00,51.6,45.3,29.50,East,100,9.4,10.5,79,0.00,BKN,FEW,0.00,WeatherDisplay:10.37,2013-04-16 00:14:00,
2013-04-16 01:19:00,51.8,45.5,29.50,SE,145,17.3,17.3,79,0.00,BKN,FEW,0.00,WeatherDisplay:10.37,2013-04-16 00:19:00,
2013-04-16 01:24:00,52.0,45.3,29.52,SE,145,12.7,12.7,78,0.00,BKN,FEW,0.00,WeatherDisplay:10.37,2013-04-16 00:24:00,
2013-04-16 01:29:00,52.0,45.3,29.52,WSW,258,11.5,11.5,78,0.00,BKN,FEW,0.00,WeatherDisplay:10.37,2013-04-16 00:29:00,
2013-04-16 01:34:00,52.0,45.3,29.52,SE,145,8.1,9.1,78,0.00,BKN,FEW,0.00,WeatherDisplay:10.37,2013-04-16 00:34:00,
2013-04-16 01:39:00,51.4,44.8,29.52,SSW,212,13.8,13.8,78,0.00,BKN,FEW,0.00,WeatherDisplay:10.37,2013-04-16 00:39:00,
2013-04-16 01:44:00,51.4,44.8,29.51,SE,145,12.7,12.7,78,0.00,BKN,FEW,0.00,WeatherDisplay:10.37,2013-04-16 00:44:00,
2013-04-16 01:49:00,51.3,44.6,29.51,West,280,17.3,17.3,78,0.00,BKN,FEW,0.00,WeatherDisplay:10.37,2013-04-16 00:49:00,
2013-04-16 01:54:00,51.4,44.8,29.51,SE,145,19.6,19.6,78,0.00,BKN,FEW,0.00,WeatherDisplay:10.37,2013-04-16 00:54:00,
2013-04-16 01:59:00,51.3,44.6,29.51,SE,145,12.0,12.0,78,0.00,BKN,FEW,0.00,WeatherDisplay:10.37,2013-04-16 00:59:00,
2013-04-16 02:04:00,51.3,44.6,29.50,ESE,122,8.1,8.5,78,0.00,SCT,FEW,0.00,WeatherDisplay:10.37,2013-04-16 01:04:00,
2013-04-16 02:09:00,50.9,44.6,29.50,ESE,122,12.7,12.7,79,0.00,SCT,FEW,0.00,WeatherDisplay:10.37,2013-04-16 01:09:00,
2013-04-16 02:14:00,50.7,44.4,29.50,ENE,78,12.7,12.7,79,0.00,SCT,FEW,0.00,WeatherDisplay:10.37,2013-04-16 01:14:00,
2013-04-16 02:19:00,50.7,44.4,29.50,SE,145,10.4,10.4,79,0.00,SCT,FEW,0.00,WeatherDisplay:10.37,2013-04-16 01:19:00,
2013-04-16 02:24:00,50.7,44.4,29.51,SE,145,9.2,9.2,79,0.00,SCT,FEW,0.00,WeatherDisplay:10.37,2013-04-16 01:24:00,
2013-04-16 02:29:00,50.5,44.3,29.51,NNW,348,10.4,10.4,79,0.00,SCT,FEW,0.00,WeatherDisplay:10.37,2013-04-16 01:29:00,
2013-04-16 02:34:00,50.5,44.3,29.51,ENE,78,9.2,9.2,79,0.00,SCT,FEW,0.00,WeatherDisplay:10.37,2013-04-16 01:34:00,
2013-04-16 02:39:00,50.7,44.8,29.51,SE,145,18.4,18.4,80,0.00,SCT,FEW,0.00,WeatherDisplay:10.37,2013-04-16 01:39:00,
2013-04-16 02:44:00,50.5,44.6,29.51,East,100,11.5,11.5,80,0.00,SCT,FEW,0.00,WeatherDisplay:10.37,2013-04-16 01:44:00,
2013-04-16 02:49:00,50.5,44.3,29.51,SE,145,12.7,12.7,79,0.00,SCT,FEW,0.00,WeatherDisplay:10.37,2013-04-16 01:49:00,
2013-04-16 02:54:00,50.2,43.9,29.51,SE,145,12.7,12.7,79,0.00,SCT,FEW,0.00,WeatherDisplay:10.37,2013-04-16 01:54:00,
2013-04-16 02:59:00,50.2,43.9,29.51,WSW,258,15.0,15.0,79,0.00,SCT,FEW,0.00,WeatherDisplay:10.37,2013-04-16 01:59:00,
2013-04-16 03:04:00,50.2,43.9,29.50,SE,145,15.0,15.0,79,0.00,SCT,FEW,0.00,WeatherDisplay:10.37,2013-04-16 02:04:00,
2013-04-16 03:09:00,50.2,43.9,29.50,SE,145,15.0,15.0,79,0.00,SCT,FEW,0.00,WeatherDisplay:10.37,2013-04-16 02:09:00,
2013-04-16 03:14:00,50.5,44.6,29.50,SE,145,14.2,14.2,80,0.00,SCT,FEW,0.00,WeatherDisplay:10.37,2013-04-16 02:14:00,
2013-04-16 03:19:00,50.5,44.6,29.50,SE,145,14.2,14.2,80,0.00,SCT,FEW,0.00,WeatherDisplay:10.37,2013-04-16 02:19:00,
2013-04-16 03:24:00,50.2,44.2,29.50,ESE,122,8.1,8.7,80,0.00,SCT,FEW,0.00,WeatherDisplay:10.37,2013-04-16 02:24:00,
2013-04-16 03:29:00,50.2,43.9,29.50,WSW,258,11.5,11.5,79,0.00,SCT,FEW,0.00,WeatherDisplay:10.37,2013-04-16 02:29:00,
2013-04-16 03:34:00,50.0,43.7,29.50,WSW,258,12.7,12.7,79,0.00,SCT,FEW,0.00,WeatherDisplay:10.37,2013-04-16 02:34:00,
2013-04-16 03:39:00,50.0,43.7,29.50,ESE,122,13.8,13.8,79,0.00,SCT,FEW,0.00,WeatherDisplay:10.37,2013-04-16 02:39:00,
2013-04-16 03:44:00,50.2,44.2,29.50,WSW,258,9.2,9.4,80,0.00,SCT,FEW,0.00,WeatherDisplay:10.37,2013-04-16 02:44:00,
2013-04-16 03:49:00,49.8,43.9,29.50,West,280,13.8,13.8,80,0.00,SCT,FEW,0.00,WeatherDisplay:10.37,2013-04-16 02:49:00,
2013-04-16 03:54:00,49.8,44.2,29.50,ESE,122,12.8,12.8,81,0.00,SCT,FEW,0.00,WeatherDisplay:10.37,2013-04-16 02:54:00,
2013-04-16 03:59:00,49.6,44.0,29.50,ESE,122,10.4,10.4,81,0.00,SCT,FEW,0.00,WeatherDisplay:10.37,2013-04-16 02:59:00,
2013-04-16 04:04:00,49.8,43.9,29.51,SE,145,16.1,16.1,80,0.00,FEW,,0.00,WeatherDisplay:10.37,2013-04-16 03:04:00,
2013-04-16 04:09:00,49.8,43.9,29.51,West,280,15.0,15.0,80,0.00,FEW,,0.00,WeatherDisplay:10.37,2013-04-16 03:09:00,
2013-04-16 04:14:00,49.6,43.7,29.51,East,100,12.7,12.7,80,0.00,FEW,,0.00,WeatherDisplay:10.37,2013-04-16 03:14:00,
2013-04-16 04:19:00,49.6,43.7,29.51,West,280,17.3,17.3,80,0.00,FEW,,0.00,WeatherDisplay:10.37,2013-04-16 03:19:00,
2013-04-16 04:24:00,49.8,43.6,29.50,WSW,258,13.8,13.8,79,0.00,FEW,,0.00,WeatherDisplay:10.37,2013-04-16 03:24:00,
2013-04-16 04:29:00,49.8,43.2,29.50,SE,145,10.4,10.4,78,0.00,FEW,,0.00,WeatherDisplay:10.37,2013-04-16 03:29:00,
2013-04-16 04:34:00,49.8,43.2,29.50,SE,145,20.7,20.7,78,0.00,FEW,,0.00,WeatherDisplay:10.37,2013-04-16 03:34:00,
2013-04-16 04:39:00,49.8,42.9,29.50,WSW,258,13.8,13.8,77,0.00,FEW,,0.00,WeatherDisplay:10.37,2013-04-16 03:39:00,
2013-04-16 04:44:00,49.8,43.2,29.50,West,280,13.8,13.8,78,0.00,FEW,,0.00,WeatherDisplay:10.37,2013-04-16 03:44:00,
2013-04-16 04:49:00,49.6,42.7,29.50,WSW,258,18.4,18.4,77,0.00,FEW,,0.00,WeatherDisplay:10.37,2013-04-16 03:49:00,
2013-04-16 04:54:00,49.8,43.2,29.50,West,280,18.4,18.4,78,0.00,FEW,,0.00,WeatherDisplay:10.37,2013-04-16 03:54:00,
2013-04-16 04:59:00,49.6,42.7,29.50,SE,145,19.6,19.6,77,0.00,FEW,,0.00,WeatherDisplay:10.37,2013-04-16 03:59:00,
2013-04-16 05:00:00,49.6,42.7,29.50,SE,145,19.6,19.6,77,0.00,FEW,,0.00,WeatherDisplay:10.37,2013-04-16 04:00:00,
2013-04-16 05:05:00,49.8,42.9,29.51,ESE,122,24.2,24.2,77,0.00,FEW,,0.00,WeatherDisplay:10.37,2013-04-16 04:05:00,
2013-04-16 05:10:00,49.8,43.2,29.51,ESE,122,9.2,12.3,78,0.00,FEW,,0.00,WeatherDisplay:10.37,2013-04-16 04:10:00,
2013-04-16 05:15:00,49.8,43.2,29.51,ESE,122,14.4,14.4,78,0.00,FEW,,0.00,WeatherDisplay:10.37,2013-04-16 04:15:00,
2013-04-16 05:20:00,49.5,42.9,29.51,ESE,122,26.5,26.5,78,0.00,FEW,,0.00,WeatherDisplay:10.37,2013-04-16 04:20:00,
2013-04-16 05:25:00,49.5,42.9,29.51,SE,145,19.9,19.9,78,0.00,FEW,,0.00,WeatherDisplay:10.37,2013-04-16 04:25:00,
2013-04-16 05:30:00,49.5,42.9,29.51,WSW,258,10.9,10.9,78,0.00,FEW,,0.00,WeatherDisplay:10.37,2013-04-16 04:30:00,
2013-04-16 05:35:00,49.5,42.9,29.51,SE,145,13.8,13.8,78,0.00,FEW,,0.00,WeatherDisplay:10.37,2013-04-16 04:35:00,
2013-04-16 05:40:00,49.3,42.7,29.53,West,280,23.0,23.0,78,0.00,FEW,,0.00,WeatherDisplay:10.37,2013-04-16 04:40:00,
2013-04-16 05:45:00,49.5,42.9,29.53,ESE,122,13.8,13.8,78,0.00,FEW,,0.00,WeatherDisplay:10.37,2013-04-16 04:45:00,
2013-04-16 05:50:00,49.5,42.9,29.53,WSW,258,16.1,16.1,78,0.00,FEW,,0.00,WeatherDisplay:10.37,2013-04-16 04:50:00,
2013-04-16 05:56:00,49.3,43.0,29.53,WSW,258,13.8,13.8,79,0.00,FEW,,0.00,WeatherDisplay:10.37,2013-04-16 04:56:00,
2013-04-16 06:01:00,49.1,42.9,29.55,WSW,258,25.3,25.3,79,0.00,FEW,,0.00,WeatherDisplay:10.37,2013-04-16 05:01:00,
2013-04-16 06:06:00,49.1,42.9,29.55,ESE,122,16.1,16.1,79,0.00,FEW,,0.00,WeatherDisplay:10.37,2013-04-16 05:06:00,
2013-04-16 06:11:00,49.1,42.9,29.55,ESE,122,16.1,16.1,79,0.00,FEW,,0.00,WeatherDisplay:10.37,2013-04-16 05:11:00,
2013-04-16 06:16:00,48.4,43.1,29.55,WSW,258,9.2,9.2,82,0.00,FEW,,0.00,WeatherDisplay:10.37,2013-04-16 05:16:00,
2013-04-16 06:21:00,48.4,43.1,29.54,West,280,15.1,15.1,82,0.00,FEW,,0.00,WeatherDisplay:10.37,2013-04-16 05:21:00,
2013-04-16 06:26:00,48.4,43.1,29.54,ESE,122,9.3,9.3,82,0.00,FEW,,0.00,WeatherDisplay:10.37,2013-04-16 05:26:00,
2013-04-16 06:31:00,48.4,43.1,29.54,West,280,8.1,9.1,82,0.00,FEW,,0.00,WeatherDisplay:10.37,2013-04-16 05:31:00,
2013-04-16 06:36:00,48.4,43.1,29.54,ESE,122,23.0,23.0,82,0.00,FEW,,0.00,WeatherDisplay:10.37,2013-04-16 05:36:00,
2013-04-16 06:41:00,48.4,42.8,29.55,WSW,258,12.7,12.7,81,0.00,FEW,,0.00,WeatherDisplay:10.37,2013-04-16 05:41:00,
2013-04-16 06:46:00,48.7,43.2,29.55,WSW,258,8.1,10.6,81,0.00,FEW,,0.00,WeatherDisplay:10.37,2013-04-16 05:46:00,
2013-04-16 06:51:00,48.7,42.8,29.55,WNW,302,11.5,11.5,80,0.00,FEW,,0.00,WeatherDisplay:10.37,2013-04-16 05:51:00,
2013-04-16 06:56:00,48.7,42.5,29.55,West,280,12.7,12.7,79,0.00,FEW,,0.00,WeatherDisplay:10.37,2013-04-16 05:56:00,
2013-04-16 07:01:00,48.9,42.4,29.56,West,280,23.0,23.0,78,0.00,SCT,FEW,0.00,WeatherDisplay:10.37,2013-04-16 06:01:00,
2013-04-16 07:06:00,49.1,42.5,29.56,ESE,122,16.5,16.5,78,0.00,SCT,FEW,0.00,WeatherDisplay:10.37,2013-04-16 06:06:00,
2013-04-16 07:11:00,49.1,42.5,29.56,West,280,16.1,16.1,78,0.00,SCT,FEW,0.00,WeatherDisplay:10.37,2013-04-16 06:11:00,
2013-04-16 07:16:00,49.3,42.7,29.56,WSW,258,18.2,18.2,78,0.00,SCT,FEW,0.00,WeatherDisplay:10.37,2013-04-16 06:16:00,
2013-04-16 07:21:00,49.1,42.5,29.57,WSW,258,9.2,9.3,78,0.00,SCT,FEW,0.00,WeatherDisplay:10.37,2013-04-16 06:21:00,
2013-04-16 07:26:00,49.3,42.7,29.57,East,100,16.1,16.1,78,0.00,SCT,FEW,0.00,WeatherDisplay:10.37,2013-04-16 06:26:00,
2013-04-16 07:31:00,49.5,42.9,29.57,WSW,258,13.8,13.8,78,0.00,SCT,FEW,0.00,WeatherDisplay:10.37,2013-04-16 06:31:00,
2013-04-16 07:36:00,49.6,43.1,29.57,ESE,122,11.5,11.5,78,0.00,SCT,FEW,0.00,WeatherDisplay:10.37,2013-04-16 06:36:00,
2013-04-16 07:41:00,51.4,44.1,29.58,ESE,122,9.2,9.3,76,0.00,SCT,FEW,0.00,WeatherDisplay:10.37,2013-04-16 06:41:00,
2013-04-16 07:47:00,52.9,44.1,29.58,WSW,258,22.0,22.0,72,0.00,SCT,FEW,0.00,WeatherDisplay:10.37,2013-04-16 06:47:00,
2013-04-16 07:52:00,51.6,43.6,29.58,WSW,258,12.9,12.9,74,0.00,SCT,FEW,0.00,WeatherDisplay:10.37,2013-04-16 06:52:00,
2013-04-16 07:57:00,50.9,43.6,29.58,NW,325,16.1,16.1,76,0.00,SCT,FEW,0.00,WeatherDisplay:10.37,2013-04-16 06:57:00,
2013-04-16 08:02:00,52.2,44.5,29.60,WSW,258,9.7,10.9,75,0.00,FEW,,0.00,WeatherDisplay:10.37,2013-04-16 07:02:00,
2013-04-16 08:07:00,51.4,43.8,29.60,WSW,258,24.2,24.2,75,0.00,FEW,,0.00,WeatherDisplay:10.37,2013-04-16 07:07:00,
2013-04-16 08:12:00,50.7,43.4,29.60,West,280,17.3,17.3,76,0.00,FEW,,0.00,WeatherDisplay:10.37,2013-04-16 07:12:00,
2013-04-16 08:17:00,54.1,45.3,29.60,ESE,122,17.3,17.3,72,0.00,FEW,,0.00,WeatherDisplay:10.37,2013-04-16 07:17:00,
2013-04-16 08:22:00,55.8,45.7,29.62,West,280,17.3,17.3,69,0.00,FEW,,0.00,WeatherDisplay:10.37,2013-04-16 07:22:00,
2013-04-16 08:27:00,56.3,45.1,29.62,WSW,258,20.7,20.7,66,0.00,FEW,,0.00,WeatherDisplay:10.37,2013-04-16 07:27:00,
2013-04-16 08:32:00,55.8,44.6,29.62,WSW,258,13.8,13.8,66,0.00,FEW,,0.00,WeatherDisplay:10.37,2013-04-16 07:32:00,
2013-04-16 08:37:00,55.6,44.8,29.62,WSW,258,9.7,9.8,67,0.00,FEW,,0.00,WeatherDisplay:10.37,2013-04-16 07:37:00,
2013-04-16 08:42:00,56.7,45.0,29.67,WSW,258,10.9,10.9,65,0.00,FEW,,0.00,WeatherDisplay:10.37,2013-04-16 07:42:00,
2013-04-16 08:47:00,56.5,44.4,29.67,WSW,258,24.2,24.2,64,0.00,FEW,,0.00,WeatherDisplay:10.37,2013-04-16 07:47:00,
2013-04-16 08:52:00,57.9,45.0,29.67,WSW,258,16.1,16.1,62,0.00,FEW,,0.00,WeatherDisplay:10.37,2013-04-16 07:52:00,
2013-04-16 08:57:00,58.1,44.7,29.67,ESE,122,18.4,18.4,61,0.00,FEW,,0.00,WeatherDisplay:10.37,2013-04-16 07:57:00,
2013-04-16 09:02:00,58.3,44.4,29.71,West,280,24.2,24.2,60,0.00,SCT,FEW,0.00,WeatherDisplay:10.37,2013-04-16 08:02:00,
2013-04-16 09:07:00,57.7,43.9,29.71,West,280,12.7,12.7,60,0.00,SCT,FEW,0.00,WeatherDisplay:10.37,2013-04-16 08:07:00,
2013-04-16 09:12:00,57.0,43.7,29.71,WSW,258,13.8,13.8,61,0.00,SCT,FEW,0.00,WeatherDisplay:10.37,2013-04-16 08:12:00,
2013-04-16 09:17:00,56.8,43.5,29.71,West,280,20.7,20.7,61,0.00,SCT,FEW,0.00,WeatherDisplay:10.37,2013-04-16 08:17:00,
2013-04-16 09:22:00,57.7,44.4,29.72,WSW,258,16.1,16.1,61,0.00,SCT,FEW,0.00,WeatherDisplay:10.37,2013-04-16 08:22:00,
2013-04-16 09:27:00,57.9,44.1,29.72,NW,325,21.9,21.9,60,0.00,SCT,FEW,0.00,WeatherDisplay:10.37,2013-04-16 08:27:00,
2013-04-16 09:32:00,58.1,43.4,29.72,WSW,258,15.0,15.0,58,0.00,SCT,FEW,0.00,WeatherDisplay:10.37,2013-04-16 08:32:00,
2013-04-16 09:38:00,57.7,43.5,29.72,WSW,258,17.3,17.3,59,0.00,SCT,FEW,0.00,WeatherDisplay:10.37,2013-04-16 08:38:00,
2013-04-16 09:43:00,57.7,43.5,29.72,WNW,302,19.6,19.6,59,0.00,SCT,FEW,0.00,WeatherDisplay:10.37,2013-04-16 08:43:00,
2013-04-16 09:48:00,57.7,43.5,29.72,WSW,258,9.2,10.9,59,0.00,SCT,FEW,0.00,WeatherDisplay:10.37,2013-04-16 08:48:00,
2013-04-16 09:53:00,57.6,42.9,29.72,ESE,122,16.7,16.7,58,0.00,SCT,FEW,0.00,WeatherDisplay:10.37,2013-04-16 08:53:00,
2013-04-16 09:58:00,57.7,43.1,29.72,WSW,258,11.8,12.1,58,0.00,SCT,FEW,0.00,WeatherDisplay:10.37,2013-04-16 08:58:00,
2013-04-16 10:03:00,57.4,43.2,29.72,WSW,258,22.2,22.2,59,0.00,SCT,FEW,0.00,WeatherDisplay:10.37,2013-04-16 09:03:00,
2013-04-16 10:08:00,57.4,43.2,29.72,SE,145,19.6,19.6,59,0.00,SCT,FEW,0.00,WeatherDisplay:10.37,2013-04-16 09:08:00,
2013-04-16 10:13:00,57.6,43.3,29.72,WSW,258,15.0,15.0,59,0.00,SCT,FEW,0.00,WeatherDisplay:10.37,2013-04-16 09:13:00,
2013-04-16 10:18:00,57.2,43.0,29.72,West,280,21.9,21.9,59,0.00,SCT,FEW,0.00,WeatherDisplay:10.37,2013-04-16 09:18:00,
2013-04-16 10:23:00,56.5,42.8,29.73,WSW,258,25.3,25.3,60,0.00,SCT,FEW,0.00,WeatherDisplay:10.37,2013-04-16 09:23:00,
2013-04-16 10:28:00,56.3,42.6,29.73,WSW,258,10.4,12.2,60,0.00,SCT,FEW,0.00,WeatherDisplay:10.37,2013-04-16 09:28:00,
2013-04-16 10:33:00,56.5,43.2,29.73,West,280,19.6,19.6,61,0.00,SCT,FEW,0.00,WeatherDisplay:10.37,2013-04-16 09:33:00,
2013-04-16 10:38:00,56.5,43.2,29.73,West,280,12.7,12.7,61,0.00,SCT,FEW,0.00,WeatherDisplay:10.37,2013-04-16 09:38:00,
2013-04-16 10:43:00,56.5,42.8,29.73,SE,145,12.7,12.7,60,0.00,SCT,FEW,0.00,WeatherDisplay:10.37,2013-04-16 09:43:00,
2013-04-16 10:48:00,56.1,42.8,29.73,SE,145,11.5,11.5,61,0.00,SCT,FEW,0.00,WeatherDisplay:10.37,2013-04-16 09:48:00,
2013-04-16 10:53:00,56.5,43.6,29.73,SE,145,20.7,20.7,62,0.00,SCT,FEW,0.00,WeatherDisplay:10.37,2013-04-16 09:53:00,
2013-04-16 10:58:00,56.7,43.8,29.73,ESE,122,9.2,12.1,62,0.00,SCT,FEW,0.00,WeatherDisplay:10.37,2013-04-16 09:58:00,
2013-04-16 11:03:00,57.0,44.1,29.75,WSW,258,10.4,10.4,62,0.00,SCT,FEW,0.00,WeatherDisplay:10.37,2013-04-16 10:03:00,
2013-04-16 11:08:00,56.3,43.4,29.75,WSW,258,19.6,19.6,62,0.00,SCT,FEW,0.00,WeatherDisplay:10.37,2013-04-16 10:08:00,
2013-04-16 11:13:00,56.1,43.3,29.75,WSW,258,18.8,18.8,62,0.00,SCT,FEW,0.00,WeatherDisplay:10.37,2013-04-16 10:13:00,
2013-04-16 11:18:00,56.3,43.4,29.75,ESE,122,16.1,16.1,62,0.00,SCT,FEW,0.00,WeatherDisplay:10.37,2013-04-16 10:18:00,
2013-04-16 11:23:00,56.7,42.9,29.74,WSW,258,16.5,16.5,60,0.00,SCT,FEW,0.00,WeatherDisplay:10.37,2013-04-16 10:23:00,
2013-04-16 11:28:00,57.0,40.5,29.74,ESE,122,12.7,12.7,54,0.00,SCT,FEW,0.00,WeatherDisplay:10.37,2013-04-16 10:28:00,
2013-04-16 11:33:00,57.0,39.1,29.74,WSW,258,19.6,19.6,51,0.00,SCT,FEW,0.00,WeatherDisplay:10.37,2013-04-16 10:33:00,
2013-04-16 11:38:00,57.0,37.5,29.74,WSW,258,25.3,25.3,48,0.00,SCT,FEW,0.00,WeatherDisplay:10.37,2013-04-16 10:38:00,
2013-04-16 11:43:00,57.4,37.8,29.77,ESE,122,21.9,21.9,48,0.00,SCT,FEW,0.00,WeatherDisplay:10.37,2013-04-16 10:43:00,
2013-04-16 11:48:00,57.9,37.8,29.77,NW,325,10.4,12.2,47,0.00,SCT,FEW,0.00,WeatherDisplay:10.37,2013-04-16 10:48:00,
2013-04-16 11:53:00,57.9,37.8,29.77,West,280,13.8,13.8,47,0.00,SCT,FEW,0.00,WeatherDisplay:10.37,2013-04-16 10:53:00,
2013-04-16 11:58:00,58.3,38.1,29.77,ESE,122,15.0,15.0,47,0.00,SCT,FEW,0.00,WeatherDisplay:10.37,2013-04-16 10:58:00,
2013-04-16 12:03:00,58.3,38.1,29.79,ESE,122,16.1,16.1,47,0.00,FEW,,0.00,WeatherDisplay:10.37,2013-04-16 11:03:00,
2013-04-16 12:08:00,58.3,38.1,29.79,ESE,122,16.1,16.1,47,0.00,FEW,,0.00,WeatherDisplay:10.37,2013-04-16 11:08:00,
2013-04-16 12:13:00,59.9,39.1,29.79,SE,145,19.6,19.6,46,0.00,FEW,,0.00,WeatherDisplay:10.37,2013-04-16 11:13:00,
2013-04-16 12:18:00,59.4,38.6,29.79,WSW,258,11.5,11.5,46,0.00,FEW,,0.00,WeatherDisplay:10.37,2013-04-16 11:18:00,
2013-04-16 12:23:00,58.8,38.1,29.81,WSW,258,12.7,12.7,46,0.00,FEW,,0.00,WeatherDisplay:10.37,2013-04-16 11:23:00,
2013-04-16 12:28:00,58.5,38.3,29.81,West,280,13.9,13.9,47,0.00,FEW,,0.00,WeatherDisplay:10.37,2013-04-16 11:28:00,
2013-04-16 12:33:00,58.6,39.0,29.81,WSW,258,15.0,15.0,48,0.00,FEW,,0.00,WeatherDisplay:10.37,2013-04-16 11:33:00,
2013-04-16 12:38:00,58.5,37.2,29.81,ESE,122,15.6,15.6,45,0.00,FEW,,0.00,WeatherDisplay:10.37,2013-04-16 11:38:00,
2013-04-16 12:43:00,58.5,37.2,29.82,WSW,258,18.4,18.4,45,0.00,FEW,,0.00,WeatherDisplay:10.37,2013-04-16 11:43:00,
2013-04-16 12:48:00,59.2,37.3,29.82,West,280,9.2,10.4,44,0.00,FEW,,0.00,WeatherDisplay:10.37,2013-04-16 11:48:00,
2013-04-16 12:53:00,59.4,37.4,29.82,WSW,258,25.3,25.3,44,0.00,FEW,,0.00,WeatherDisplay:10.37,2013-04-16 11:53:00,
2013-04-16 12:58:00,59.2,37.3,29.82,ESE,122,16.1,16.1,44,0.00,FEW,,0.00,WeatherDisplay:10.37,2013-04-16 11:58:00,
2013-04-16 13:03:00,59.5,37.6,29.84,WSW,258,15.0,15.0,44,0.00,SCT,FEW,0.00,WeatherDisplay:10.37,2013-04-16 12:03:00,
2013-04-16 13:08:00,60.1,38.1,29.84,West,280,16.1,16.1,44,0.00,SCT,FEW,0.00,WeatherDisplay:10.37,2013-04-16 12:08:00,
2013-04-16 13:13:00,60.1,36.9,29.84,SW,235,16.1,16.1,42,0.00,SCT,FEW,0.00,WeatherDisplay:10.37,2013-04-16 12:13:00,
2013-04-16 13:18:00,60.1,37.5,29.84,WSW,258,9.2,10.0,43,0.00,SCT,FEW,0.00,WeatherDisplay:10.37,2013-04-16 12:18:00,
2013-04-16 13:23:00,59.7,36.6,29.86,WSW,258,20.7,20.7,42,0.00,SCT,FEW,0.00,WeatherDisplay:10.37,2013-04-16 12:23:00,
2013-04-16 13:28:00,59.9,37.3,29.86,West,280,12.7,12.7,43,0.00,SCT,FEW,0.00,WeatherDisplay:10.37,2013-04-16 12:28:00,
2013-04-16 13:33:00,59.9,37.3,29.86,SE,145,15.0,15.0,43,0.00,SCT,FEW,0.00,WeatherDisplay:10.37,2013-04-16 12:33:00,
2013-04-16 13:39:00,60.1,37.5,29.86,ESE,122,15.0,15.0,43,0.00,SCT,FEW,0.00,WeatherDisplay:10.37,2013-04-16 12:39:00,
2013-04-16 13:44:00,60.4,37.2,29.87,WSW,258,18.4,18.4,42,0.00,SCT,FEW,0.00,WeatherDisplay:10.37,2013-04-16 12:44:00,
2013-04-16 13:49:00,61.3,37.4,29.87,West,280,12.7,12.7,41,0.00,SCT,FEW,0.00,WeatherDisplay:10.37,2013-04-16 12:49:00,
2013-04-16 13:54:00,61.5,37.6,29.87,WSW,258,6.9,8.7,41,0.00,SCT,FEW,0.00,WeatherDisplay:10.37,2013-04-16 12:54:00,
2013-04-16 13:59:00,61.2,37.3,29.87,WSW,258,12.7,12.7,41,0.00,SCT,FEW,0.00,WeatherDisplay:10.37,2013-04-16 12:59:00,
2013-04-16 14:04:00,61.3,37.4,29.88,West,280,13.8,13.8,41,0.00,SCT,FEW,0.00,WeatherDisplay:10.37,2013-04-16 13:04:00,
2013-04-16 14:09:00,60.1,35.7,29.88,West,280,17.3,17.3,40,0.00,SCT,FEW,0.00,WeatherDisplay:10.37,2013-04-16 13:09:00,
2013-04-16 14:14:00,59.9,36.7,29.88,NE,55,6.9,10.4,42,0.00,SCT,FEW,0.00,WeatherDisplay:10.37,2013-04-16 13:14:00,
2013-04-16 14:19:00,60.6,37.4,29.88,NW,325,21.9,21.9,42,0.00,SCT,FEW,0.00,WeatherDisplay:10.37,2013-04-16 13:19:00,
2013-04-16 14:24:00,60.8,37.5,29.87,ESE,122,20.7,20.7,42,0.00,SCT,FEW,0.00,WeatherDisplay:10.37,2013-04-16 13:24:00,
2013-04-16 14:29:00,60.4,37.2,29.87,ESE,122,13.8,13.8,42,0.00,SCT,FEW,0.00,WeatherDisplay:10.37,2013-04-16 13:29:00,
2013-04-16 14:34:00,60.1,36.9,29.87,West,280,11.5,11.5,42,0.00,SCT,FEW,0.00,WeatherDisplay:10.37,2013-04-16 13:34:00,
2013-04-16 14:39:00,60.1,37.5,29.87,WSW,258,12.7,12.7,43,0.00,SCT,FEW,0.00,WeatherDisplay:10.37,2013-04-16 13:39:00,
2013-04-16 14:44:00,59.2,37.3,29.88,WSW,258,11.5,11.5,44,0.00,SCT,FEW,0.00,WeatherDisplay:10.37,2013-04-16 13:44:00,
2013-04-16 14:49:00,58.6,36.8,29.88,ESE,122,15.0,15.0,44,0.00,SCT,FEW,0.00,WeatherDisplay:10.37,2013-04-16 13:49:00,
2013-04-16 14:54:00,58.5,36.6,29.88,West,280,15.0,15.0,44,0.00,SCT,FEW,0.00,WeatherDisplay:10.37,2013-04-16 13:54:00,
2013-04-16 14:59:00,58.8,37.5,29.88,WSW,258,19.0,19.0,45,0.00,SCT,FEW,0.00,WeatherDisplay:10.37,2013-04-16 13:59:00,
2013-04-16 15:04:00,59.9,37.9,29.88,WSW,258,18.2,18.2,44,0.00,SCT,FEW,0.00,WeatherDisplay:10.37,2013-04-16 14:04:00,
2013-04-16 15:09:00,59.7,37.2,29.88,WSW,258,11.5,11.5,43,0.00,SCT,FEW,0.00,WeatherDisplay:10.37,2013-04-16 14:09:00,
2013-04-16 15:14:00,60.3,38.2,29.88,West,280,11.7,11.7,44,0.00,SCT,FEW,0.00,WeatherDisplay:10.37,2013-04-16 14:14:00,
2013-04-16 15:19:00,60.1,37.5,29.88,ESE,122,16.1,16.1,43,0.00,SCT,FEW,0.00,WeatherDisplay:10.37,2013-04-16 14:19:00,
2013-04-16 15:24:00,59.9,36.7,29.88,WSW,258,18.4,18.4,42,0.00,SCT,FEW,0.00,WeatherDisplay:10.37,2013-04-16 14:24:00,
2013-04-16 15:29:00,59.9,37.3,29.88,SE,145,20.7,20.7,43,0.00,SCT,FEW,0.00,WeatherDisplay:10.37,2013-04-16 14:29:00,
2013-04-16 15:34:00,60.3,37.7,29.88,WSW,258,15.0,15.0,43,0.00,SCT,FEW,0.00,WeatherDisplay:10.37,2013-04-16 14:34:00,
2013-04-16 15:39:00,60.4,37.8,29.88,WSW,258,19.6,19.6,43,0.00,SCT,FEW,0.00,WeatherDisplay:10.37,2013-04-16 14:39:00,
2013-04-16 15:44:00,60.3,37.1,29.89,WSW,258,18.4,18.4,42,0.00,SCT,FEW,0.00,WeatherDisplay:10.37,2013-04-16 14:44:00,
2013-04-16 15:49:00,60.3,37.7,29.89,West,280,12.7,12.7,43,0.00,SCT,FEW,0.00,WeatherDisplay:10.37,2013-04-16 14:49:00,
2013-04-16 15:54:00,60.3,37.7,29.89,NW,325,13.8,13.8,43,0.00,SCT,FEW,0.00,WeatherDisplay:10.37,2013-04-16 14:54:00,
2013-04-16 15:59:00,59.9,37.3,29.89,WSW,258,16.1,16.1,43,0.00,SCT,FEW,0.00,WeatherDisplay:10.37,2013-04-16 14:59:00,
2013-04-16 16:04:00,60.6,38.0,29.91,SE,145,17.3,17.3,43,0.00,SCT,FEW,0.00,WeatherDisplay:10.37,2013-04-16 15:04:00,
2013-04-16 16:09:00,60.8,38.1,29.91,West,280,13.8,13.8,43,0.00,SCT,FEW,0.00,WeatherDisplay:10.37,2013-04-16 15:09:00,
2013-04-16 16:14:00,61.3,38.6,29.91,NW,325,8.1,8.1,43,0.00,SCT,FEW,0.00,WeatherDisplay:10.37,2013-04-16 15:14:00,
2013-04-16 16:19:00,61.3,38.0,29.91,ESE,122,10.4,10.4,42,0.00,SCT,FEW,0.00,WeatherDisplay:10.37,2013-04-16 15:19:00,
2013-04-16 16:24:00,60.3,37.7,29.93,WSW,258,13.8,13.8,43,0.00,SCT,FEW,0.00,WeatherDisplay:10.37,2013-04-16 15:24:00,
2013-04-16 16:29:00,59.7,37.8,29.93,SE,145,10.4,10.4,44,0.00,SCT,FEW,0.00,WeatherDisplay:10.37,2013-04-16 15:29:00,
2013-04-16 16:34:00,59.7,37.2,29.93,WSW,258,16.1,16.1,43,0.00,SCT,FEW,0.00,WeatherDisplay:10.37,2013-04-16 15:34:00,
2013-04-16 16:39:00,59.4,36.8,29.93,ESE,122,9.2,9.2,43,0.00,SCT,FEW,0.00,WeatherDisplay:10.37,2013-04-16 15:39:00,
2013-04-16 16:44:00,59.5,37.0,29.94,SE,145,13.8,13.8,43,0.00,SCT,FEW,0.00,WeatherDisplay:10.37,2013-04-16 15:44:00,
2013-04-16 16:49:00,59.5,37.0,29.94,West,280,10.4,10.4,43,0.00,SCT,FEW,0.00,WeatherDisplay:10.37,2013-04-16 15:49:00,
2013-04-16 16:54:00,59.5,37.0,29.94,WSW,258,12.7,12.7,43,0.00,SCT,FEW,0.00,WeatherDisplay:10.37,2013-04-16 15:54:00,
2013-04-16 16:59:00,59.4,35.6,29.94,ESE,122,12.7,12.7,41,0.00,SCT,FEW,0.00,WeatherDisplay:10.37,2013-04-16 15:59:00,
2013-04-16 17:04:00,59.4,36.2,29.94,WSW,258,10.4,10.4,42,0.00,SCT,FEW,0.00,WeatherDisplay:10.37,2013-04-16 16:04:00,
2013-04-16 17:09:00,59.2,36.1,29.94,ESE,122,10.4,10.4,42,0.00,SCT,FEW,0.00,WeatherDisplay:10.37,2013-04-16 16:09:00,
2013-04-16 17:14:00,59.4,36.2,29.94,SE,145,8.1,8.1,42,0.00,SCT,FEW,0.00,WeatherDisplay:10.37,2013-04-16 16:14:00,
2013-04-16 17:19:00,59.5,36.4,29.94,WNW,302,12.7,12.7,42,0.00,SCT,FEW,0.00,WeatherDisplay:10.37,2013-04-16 16:19:00,
2013-04-16 17:24:00,59.2,36.7,29.93,WSW,258,11.4,11.4,43,0.00,SCT,FEW,0.00,WeatherDisplay:10.37,2013-04-16 16:24:00,
2013-04-16 17:29:00,59.2,36.7,29.93,WSW,258,15.0,15.0,43,0.00,SCT,FEW,0.00,WeatherDisplay:10.37,2013-04-16 16:29:00,
2013-04-16 17:34:00,59.4,36.8,29.93,WSW,258,11.5,11.5,43,0.00,SCT,FEW,0.00,WeatherDisplay:10.37,2013-04-16 16:34:00,
2013-04-16 17:39:00,59.0,36.5,29.93,ESE,122,10.4,10.4,43,0.00,SCT,FEW,0.00,WeatherDisplay:10.37,2013-04-16 16:39:00,
2013-04-16 17:44:00,58.8,36.9,29.94,SE,145,11.5,11.5,44,0.00,SCT,FEW,0.00,WeatherDisplay:10.37,2013-04-16 16:44:00,
2013-04-16 17:49:00,58.8,36.9,29.94,WSW,258,10.7,10.7,44,0.00,SCT,FEW,0.00,WeatherDisplay:10.37,2013-04-16 16:49:00,
2013-04-16 17:54:00,58.8,36.9,29.94,WSW,258,11.7,11.7,44,0.00,SCT,FEW,0.00,WeatherDisplay:10.37,2013-04-16 16:54:00,
2013-04-16 17:59:00,58.6,36.8,29.94,WSW,258,10.4,10.4,44,0.00,SCT,FEW,0.00,WeatherDisplay:10.37,2013-04-16 16:59:00,
2013-04-16 18:04:00,58.1,36.3,29.95,WSW,258,15.2,15.2,44,0.00,FEW,,0.00,WeatherDisplay:10.37,2013-04-16 17:04:00,
2013-04-16 18:09:00,57.7,36.0,29.95,West,280,8.1,8.1,44,0.00,FEW,,0.00,WeatherDisplay:10.37,2013-04-16 17:09:00,
2013-04-16 18:14:00,57.7,36.5,29.95,ESE,122,12.7,12.7,45,0.00,FEW,,0.00,WeatherDisplay:10.37,2013-04-16 17:14:00,
2013-04-16 18:19:00,57.9,36.7,29.95,WSW,258,10.4,10.4,45,0.00,FEW,,0.00,WeatherDisplay:10.37,2013-04-16 17:19:00,
2013-04-16 18:24:00,58.3,37.0,29.95,SE,145,8.1,8.1,45,0.00,FEW,,0.00,WeatherDisplay:10.37,2013-04-16 17:24:00,
2013-04-16 18:29:00,58.5,36.6,29.95,West,280,5.8,6.4,44,0.00,FEW,,0.00,WeatherDisplay:10.37,2013-04-16 17:29:00,
2013-04-16 18:34:00,58.1,36.9,29.95,ESE,122,5.8,5.8,45,0.00,FEW,,0.00,WeatherDisplay:10.37,2013-04-16 17:34:00,
2013-04-16 18:39:00,57.9,35.5,29.95,WSW,258,6.9,6.9,43,0.00,FEW,,0.00,WeatherDisplay:10.37,2013-04-16 17:39:00,
2013-04-16 18:45:00,57.7,35.4,29.95,ESE,122,11.5,11.5,43,0.00,FEW,,0.00,WeatherDisplay:10.37,2013-04-16 17:45:00,
2013-04-16 18:50:00,57.6,35.2,29.95,ESE,122,8.1,8.1,43,0.00,FEW,,0.00,WeatherDisplay:10.37,2013-04-16 17:50:00,
2013-04-16 18:55:00,57.2,34.9,29.95,WSW,258,13.8,13.8,43,0.00,FEW,,0.00,WeatherDisplay:10.37,2013-04-16 17:55:00,
2013-04-16 19:00:00,57.0,34.1,29.95,WSW,258,13.8,13.8,42,0.00,FEW,,0.00,WeatherDisplay:10.37,2013-04-16 18:00:00,
2013-04-16 19:05:00,56.8,33.4,29.96,ESE,122,13.8,13.8,41,0.00,FEW,,0.00,WeatherDisplay:10.37,2013-04-16 18:05:00,
2013-04-16 19:10:00,56.7,33.8,29.96,WSW,258,9.2,9.2,42,0.00,FEW,,0.00,WeatherDisplay:10.37,2013-04-16 18:10:00,
2013-04-16 19:15:00,56.5,33.6,29.96,West,280,8.2,8.2,42,0.00,FEW,,0.00,WeatherDisplay:10.37,2013-04-16 18:15:00,
2013-04-16 19:20:00,56.3,33.5,29.96,West,280,10.6,10.6,42,0.00,FEW,,0.00,WeatherDisplay:10.37,2013-04-16 18:20:00,
2013-04-16 19:25:00,55.8,32.4,29.95,ESE,122,11.5,11.5,41,0.00,FEW,,0.00,WeatherDisplay:10.37,2013-04-16 18:25:00,
2013-04-16 19:30:00,55.8,32.4,29.95,WSW,258,8.1,8.1,41,0.00,FEW,,0.00,WeatherDisplay:10.37,2013-04-16 18:30:00,
2013-04-16 19:35:00,55.6,32.8,29.95,WSW,258,8.1,8.1,42,0.00,FEW,,0.00,WeatherDisplay:10.37,2013-04-16 18:35:00,
2013-04-16 19:40:00,55.2,32.5,29.95,WSW,258,8.1,8.1,42,0.00,FEW,,0.00,WeatherDisplay:10.37,2013-04-16 18:40:00,
2013-04-16 19:45:00,55.2,32.5,29.95,WSW,258,8.1,8.1,42,0.00,FEW,,0.00,WeatherDisplay:10.37,2013-04-16 18:45:00,
2013-04-16 19:50:00,55.0,32.3,29.95,WSW,258,5.8,6.0,42,0.00,FEW,,0.00,WeatherDisplay:10.37,2013-04-16 18:50:00,
2013-04-16 19:55:00,54.9,32.8,29.95,WSW,258,6.9,6.9,43,0.00,FEW,,0.00,WeatherDisplay:10.37,2013-04-16 18:55:00,
2013-04-16 20:00:00,54.9,32.8,29.95,WSW,258,5.8,5.8,43,0.00,FEW,,0.00,WeatherDisplay:10.37,2013-04-16 19:00:00,
2013-04-16 20:05:00,54.3,32.8,29.96,WSW,258,4.6,4.6,44,0.00,BKN,FEW,0.00,WeatherDisplay:10.37,2013-04-16 19:05:00,
2013-04-16 20:10:00,54.3,32.8,29.96,WSW,258,4.6,4.6,44,0.00,BKN,FEW,0.00,WeatherDisplay:10.37,2013-04-16 19:10:00,
2013-04-16 20:15:00,53.8,32.9,29.96,WSW,258,6.9,6.9,45,0.00,BKN,FEW,0.00,WeatherDisplay:10.37,2013-04-16 19:15:00,
2013-04-16 20:20:00,53.8,32.9,29.96,WSW,258,5.8,5.8,45,0.00,BKN,FEW,0.00,WeatherDisplay:10.37,2013-04-16 19:20:00,
2013-04-16 20:25:00,53.4,33.1,29.95,ESE,122,2.8,2.8,46,0.00,BKN,FEW,0.00,WeatherDisplay:10.37,2013-04-16 19:25:00,
2013-04-16 20:30:00,53.1,33.3,29.95,WSW,258,2.3,2.4,47,0.00,BKN,FEW,0.00,WeatherDisplay:10.37,2013-04-16 19:30:00,
2013-04-16 20:35:00,52.7,33.0,29.95,ESE,122,2.3,2.4,47,0.00,BKN,FEW,0.00,WeatherDisplay:10.37,2013-04-16 19:35:00,
2013-04-16 20:40:00,52.2,33.0,29.95,WSW,258,2.3,2.3,48,0.00,BKN,FEW,0.00,WeatherDisplay:10.37,2013-04-16 19:40:00,
2013-04-16 20:45:00,52.0,33.4,29.95,WSW,258,1.2,1.2,49,0.00,BKN,FEW,0.00,WeatherDisplay:10.37,2013-04-16 19:45:00,
2013-04-16 20:50:00,51.4,33.4,29.95,ESE,122,0.0,0.6,50,0.00,BKN,FEW,0.00,WeatherDisplay:10.37,2013-04-16 19:50:00,
2013-04-16 20:55:00,51.1,33.1,29.95,ESE,122,0.0,0.4,50,0.00,BKN,FEW,0.00,WeatherDisplay:10.37,2013-04-16 19:55:00,
2013-04-16 21:00:00,50.9,33.4,29.95,ESE,122,1.4,1.4,51,0.00,BKN,FEW,0.00,WeatherDisplay:10.37,2013-04-16 20:00:00,
2013-04-16 21:05:00,50.7,33.2,29.95,ESE,122,1.2,1.2,51,0.00,BKN,FEW,0.00,WeatherDisplay:10.37,2013-04-16 20:05:00,
2013-04-16 21:10:00,50.2,33.2,29.95,SE,145,2.3,2.3,52,0.00,BKN,FEW,0.00,WeatherDisplay:10.37,2013-04-16 20:10:00,
2013-04-16 21:15:00,50.0,33.1,29.95,ESE,122,1.2,1.2,52,0.00,BKN,FEW,0.00,WeatherDisplay:10.37,2013-04-16 20:15:00,
2013-04-16 21:20:00,49.8,32.9,29.95,ESE,122,2.3,2.3,52,0.00,BKN,FEW,0.00,WeatherDisplay:10.37,2013-04-16 20:20:00,
2013-04-16 21:25:00,49.6,32.7,29.95,ESE,122,0.0,0.4,52,0.00,BKN,FEW,0.00,WeatherDisplay:10.37,2013-04-16 20:25:00,
2013-04-16 21:30:00,49.3,32.9,29.95,ESE,122,0.0,0.4,53,0.00,BKN,FEW,0.00,WeatherDisplay:10.37,2013-04-16 20:30:00,
2013-04-16 21:35:00,49.1,32.7,29.95,SE,145,1.2,1.2,53,0.00,BKN,FEW,0.00,WeatherDisplay:10.37,2013-04-16 20:35:00,
2013-04-16 21:40:00,48.9,32.5,29.95,SE,145,0.0,0.5,53,0.00,BKN,FEW,0.00,WeatherDisplay:10.37,2013-04-16 20:40:00,
2013-04-16 21:45:00,48.7,32.8,29.95,SE,145,1.7,1.7,54,0.00,BKN,FEW,0.00,WeatherDisplay:10.37,2013-04-16 20:45:00,
2013-04-16 21:50:00,48.4,32.5,29.95,ESE,122,0.0,0.6,54,0.00,BKN,FEW,0.00,WeatherDisplay:10.37,2013-04-16 20:50:00,
2013-04-16 21:55:00,48.4,32.5,29.95,SE,145,2.3,2.3,54,0.00,BKN,FEW,0.00,WeatherDisplay:10.37,2013-04-16 20:55:00,
2013-04-16 22:00:00,48.4,32.5,29.95,SE,145,1.2,1.2,54,0.00,BKN,FEW,0.00,WeatherDisplay:10.37,2013-04-16 21:00:00,
2013-04-16 22:05:00,48.4,32.9,29.94,ESE,122,3.5,3.5,55,0.00,CLR,FEW,0.00,WeatherDisplay:10.37,2013-04-16 21:05:00,
2013-04-16 22:10:00,48.4,32.9,29.94,SE,145,1.2,1.6,55,0.00,CLR,FEW,0.00,WeatherDisplay:10.37,2013-04-16 21:10:00,
2013-04-16 22:15:00,48.4,33.4,29.94,SE,145,1.2,1.2,56,0.00,CLR,FEW,0.00,WeatherDisplay:10.37,2013-04-16 21:15:00,
2013-04-16 22:20:00,48.0,33.1,29.94,ESE,122,0.0,0.6,56,0.00,CLR,FEW,0.00,WeatherDisplay:10.37,2013-04-16 21:20:00,
2013-04-16 22:25:00,48.0,33.5,29.94,ESE,122,1.2,1.2,57,0.00,CLR,FEW,0.00,WeatherDisplay:10.37,2013-04-16 21:25:00,
2013-04-16 22:30:00,47.7,33.6,29.94,ESE,122,1.2,1.2,58,0.00,CLR,FEW,0.00,WeatherDisplay:10.37,2013-04-16 21:30:00,
2013-04-16 22:35:00,47.7,33.6,29.94,ESE,122,0.0,0.2,58,0.00,CLR,FEW,0.00,WeatherDisplay:10.37,2013-04-16 21:35:00,
2013-04-16 22:40:00,47.1,33.1,29.94,ESE,122,0.0,0.1,58,0.00,CLR,FEW,0.00,WeatherDisplay:10.37,2013-04-16 21:40:00,
2013-04-16 22:45:00,47.3,33.7,29.93,SE,145,1.3,1.3,59,0.00,CLR,FEW,0.00,WeatherDisplay:10.37,2013-04-16 21:45:00,
2013-04-16 22:50:00,46.9,33.8,29.93,SE,145,2.3,2.3,60,0.00,CLR,FEW,0.00,WeatherDisplay:10.37,2013-04-16 21:50:00,
2013-04-16 22:55:00,46.9,33.8,29.93,SE,145,2.3,2.3,60,0.00,CLR,FEW,0.00,WeatherDisplay:10.37,2013-04-16 21:55:00,
2013-04-16 23:00:00,46.9,34.2,29.94,WSW,258,1.6,1.6,61,0.00,CLR,FEW,0.00,WeatherDisplay:10.37,2013-04-16 22:00:00,
2013-04-16 23:05:00,46.9,34.2,29.94,ESE,122,1.2,1.2,61,0.00,CLR,FEW,0.00,WeatherDisplay:10.37,2013-04-16 22:05:00,
2013-04-16 23:10:00,46.9,34.6,29.94,SE,145,0.0,0.4,62,0.00,CLR,FEW,0.00,WeatherDisplay:10.37,2013-04-16 22:10:00,
2013-04-16 23:15:00,46.9,35.0,29.94,WSW,258,2.3,2.3,63,0.00,CLR,FEW,0.00,WeatherDisplay:10.37,2013-04-16 22:15:00,
2013-04-16 23:20:00,46.9,35.4,29.93,SE,145,1.2,1.2,64,0.00,CLR,FEW,0.00,WeatherDisplay:10.37,2013-04-16 22:20:00,
2013-04-16 23:25:00,46.9,35.4,29.93,West,280,0.0,0.5,64,0.00,CLR,FEW,0.00,WeatherDisplay:10.37,2013-04-16 22:25:00,
2013-04-16 23:30:00,46.6,35.8,29.93,ESE,122,0.0,0.2,66,0.00,CLR,FEW,0.00,WeatherDisplay:10.37,2013-04-16 22:30:00,
2013-04-16 23:35:00,46.6,36.2,29.93,ESE,122,2.3,2.3,67,0.00,CLR,FEW,0.00,WeatherDisplay:10.37,2013-04-16 22:35:00,
2013-04-16 23:40:00,46.9,36.9,29.90,ESE,122,3.5,3.5,68,0.00,CLR,FEW,0.00,WeatherDisplay:10.37,2013-04-16 22:40:00,
2013-04-16 23:45:00,46.8,37.1,29.90,SE,145,0.0,1.3,69,0.00,CLR,FEW,0.00,WeatherDisplay:10.37,2013-04-16 22:45:00,
2013-04-16 23:50:00,46.9,37.3,29.90,SE,145,1.2,1.3,69,0.00,CLR,FEW,0.00,WeatherDisplay:10.37,2013-04-16 22:50:00,
2013-04-16 23:55:00,46.8,37.1,29.90,ESE,122,0.0,1.0,69,0.00,CLR,FEW,0.00,WeatherDisplay:10.37,2013-04-16 22:55:00,